Terminal Aerodrome Forecast
Issued by NWS St Louis, MO

Home | Current Version | Previous Version | Text Only | Print | Product List | Glossary On
Versions: 1 2 3 4 5 6 7 8 9 10 11 12 13 14 15 16 17 18 19 20 21 22 23 24 25 26 27
120
FTUS43 KLSX 120312 AAA
TAFSTL
TAF AMD
KSTL 120312Z 1203/1306 09007KT P6SM OVC060
     FM120600 11004KT 3SM -SN OVC040
     FM120800 VRB03KT 2SM -SN OVC025
     FM121100 00000KT P6SM OVC015
     FM121500 02006KT P6SM OVC025
     FM121900 32012G20KT P6SM BKN040
     FM130000 23010KT P6SM SCT120=

USA.gov is the U.S. government's official web portal to all federal, state and local government web resources and services.